Portada
METAR-TAF:

METAR-TAF

Aeropuertos :

Alpnach, Suiza

latitud: 46-56-19N, longitud: 8-17-03E, altitud: 440 m

Observación

El informe se hizo hace 17 minutos, a las 17:20 UTC
Viento 12 kt del este-noreste, variando entre norte-noreste y este
Temperatura 4°C
Humedad 75%
Presión 989 hPa
Visibilidad 10 km o más
Cielo nuboso a una altura de 19000 ft

METAR: LSMA 041720Z AUTO 06012KT 030V100 9999NDV BKN190 04/00 Q0989 RMK

Hora: 18:37 (17:37 UTC)


TAF: falta

Observaciones y pronósticos meteorológicos de más de 4000 aeropuertos (mensajes METAR y TAF).

Los puntos amarillos y rojos representan las estaciones disponibles.

Ponga el ratón en el punto deseado para ver el nombre de la estación.

Haga clic para ver las observaciones y los pronósticos meteorológicos.

Para cambiar el mapa : haga clic en los botones verdes con una cruz de color negro para hacer un zoom, en el botón verde con un guión para alejar o en las flechas verdes para mapas adyacentes.


METAR-TAF: